createdAt,value
2018-08-25T00:00:52.690Z,15.47
2018-08-25T00:03:28.368Z,14.20
2018-08-25T00:06:03.971Z,10.67
2018-08-25T00:08:39.581Z,11.87
2018-08-25T00:11:15.292Z,12.70
2018-08-25T00:13:50.975Z,37.13
2018-08-25T00:16:26.951Z,31.53
2018-08-25T00:19:03.345Z,19.50
2018-08-25T00:21:39.081Z,18.87
2018-08-25T00:24:15.749Z,23.17
2018-08-25T00:26:55.880Z,27.90
2018-08-25T00:29:31.964Z,21.67
2018-08-25T00:32:07.820Z,19.20
2018-08-25T00:34:44.414Z,12.57
2018-08-25T00:37:20.558Z,13.30
2018-08-25T00:39:56.567Z,15.33
2018-08-25T00:42:32.443Z,14.83
2018-08-25T00:45:08.214Z,14.73
2018-08-25T00:47:44.712Z,13.50
2018-08-25T00:50:20.874Z,12.43
2018-08-25T00:52:56.673Z,12.27
2018-08-25T00:55:32.737Z,11.30
2018-08-25T00:58:08.670Z,11.27
2018-08-25T01:00:45.039Z,11.03
2018-08-25T01:03:21.078Z,12.20
2018-08-25T01:05:57.052Z,12.93
2018-08-25T01:08:32.932Z,16.43
2018-08-25T01:11:08.649Z,15.43
2018-08-25T01:13:44.941Z,11.83
2018-08-25T01:16:20.659Z,10.77
2018-08-25T01:18:56.514Z,12.30
2018-08-25T01:21:32.292Z,10.57
2018-08-25T01:24:08.105Z,10.87
2018-08-25T01:26:43.881Z,12.57
2018-08-25T01:29:19.672Z,17.00
2018-08-25T01:31:55.459Z,10.77
2018-08-25T01:34:31.894Z,14.03
2018-08-25T01:37:07.637Z,13.67
2018-08-25T01:39:43.570Z,15.40
2018-08-25T01:42:19.389Z,14.77
2018-08-25T01:44:55.870Z,13.03
2018-08-25T01:47:31.616Z,14.37
2018-08-25T01:50:07.698Z,13.80
2018-08-25T01:52:43.477Z,13.00
2018-08-25T01:55:19.270Z,11.83
2018-08-25T01:57:54.903Z,13.67
2018-08-25T02:00:30.682Z,17.13
2018-08-25T02:03:06.635Z,13.43
2018-08-25T02:05:42.467Z,13.20
2018-08-25T02:08:18.235Z,13.20
2018-08-25T02:10:54.107Z,18.07
2018-08-25T02:13:29.903Z,15.40
2018-08-25T02:16:06.488Z,16.13
2018-08-25T02:18:42.357Z,12.83
2018-08-25T02:21:18.333Z,13.97
2018-08-25T02:23:54.173Z,13.30
2018-08-25T02:26:32.552Z,11.03
2018-08-25T02:29:08.598Z,11.83
2018-08-25T02:31:44.477Z,13.03
2018-08-25T02:34:20.352Z,11.47
2018-08-25T02:36:58.434Z,15.37
2018-08-25T02:39:34.430Z,12.57
2018-08-25T02:42:10.329Z,12.60
2018-08-25T02:44:46.148Z,12.83
2018-08-25T02:47:23.770Z,16.10
2018-08-25T02:49:59.701Z,14.50
2018-08-25T02:52:35.565Z,10.27
2018-08-25T02:55:11.434Z,13.23
2018-08-25T02:57:51.086Z,12.80
2018-08-25T03:00:26.717Z,12.20
2018-08-25T03:03:03.658Z,12.27
2018-08-25T03:05:39.408Z,13.13
2018-08-25T03:08:15.329Z,12.77
2018-08-25T03:10:51.039Z,16.17
2018-08-25T03:13:26.706Z,15.17
2018-08-25T03:16:02.552Z,13.67
2018-08-25T03:18:38.426Z,12.17
2018-08-25T03:21:14.249Z,13.03
2018-08-25T03:23:50.208Z,14.60
2018-08-25T03:26:25.938Z,18.57
2018-08-25T03:29:01.713Z,12.67
2018-08-25T03:31:37.622Z,14.80
2018-08-25T03:34:13.383Z,13.57
2018-08-25T03:36:49.128Z,15.67
2018-08-25T03:39:24.949Z,13.70
2018-08-25T03:42:00.687Z,12.83
2018-08-25T03:44:36.461Z,14.43
2018-08-25T03:47:12.404Z,14.53
2018-08-25T03:49:48.399Z,15.30
2018-08-25T03:52:24.140Z,14.33
2018-08-25T03:55:00.042Z,14.47
2018-08-25T03:57:35.901Z,14.27
2018-08-25T04:00:11.708Z,17.73
2018-08-25T04:02:47.458Z,19.93
2018-08-25T04:05:23.354Z,19.53
2018-08-25T04:07:59.169Z,17.30
2018-08-25T04:10:35.119Z,18.93
2018-08-25T04:13:10.823Z,18.43
2018-08-25T04:15:46.491Z,18.07
2018-08-25T04:18:22.243Z,17.60
2018-08-25T04:20:58.032Z,18.67
2018-08-25T04:23:33.923Z,21.87
2018-08-25T04:26:09.875Z,25.77
2018-08-25T04:28:45.772Z,16.73
2018-08-25T04:31:21.401Z,16.07
2018-08-25T04:33:57.174Z,21.23
2018-08-25T04:36:33.092Z,21.90
2018-08-25T04:39:10.686Z,21.10
2018-08-25T04:41:46.483Z,27.37
2018-08-25T04:44:22.199Z,27.57
2018-08-25T04:46:58.026Z,18.30
2018-08-25T04:49:33.765Z,19.97
2018-08-25T04:52:09.789Z,17.87
2018-08-25T04:54:45.393Z,18.80
2018-08-25T04:57:21.513Z,17.50
2018-08-25T04:59:57.296Z,20.63
2018-08-25T05:02:33.143Z,16.17
2018-08-25T05:05:09.007Z,20.63
2018-08-25T05:07:44.908Z,24.10
2018-08-25T05:10:20.845Z,21.40
2018-08-25T05:12:56.732Z,21.33
2018-08-25T05:15:32.562Z,21.07
2018-08-25T05:18:08.458Z,40.10
2018-08-25T05:20:44.185Z,26.83
2018-08-25T05:23:20.071Z,42.83
2018-08-25T05:25:55.847Z,38.83
2018-08-25T05:28:31.772Z,39.23
2018-08-25T05:31:07.616Z,28.10
2018-08-25T05:33:43.419Z,24.87
2018-08-25T05:36:19.185Z,46.60
2018-08-25T05:38:55.465Z,41.40
2018-08-25T05:41:31.331Z,30.40
2018-08-25T05:44:07.222Z,28.17
2018-08-25T05:46:44.186Z,28.57
2018-08-25T05:49:21.264Z,29.50
2018-08-25T05:51:57.263Z,27.27
2018-08-25T05:54:32.995Z,30.33
2018-08-25T05:57:10.448Z,24.43
2018-08-25T05:59:46.524Z,31.23
2018-08-25T06:02:22.279Z,25.80
2018-08-25T06:04:58.542Z,26.37
2018-08-25T06:07:34.379Z,22.67
2018-08-25T06:10:10.620Z,27.03
2018-08-25T06:12:46.494Z,30.80
2018-08-25T06:15:22.330Z,24.23
2018-08-25T06:17:58.184Z,24.87
2018-08-25T06:20:33.938Z,54.90
2018-08-25T06:23:09.797Z,24.37
2018-08-25T06:25:45.925Z,26.70
2018-08-25T06:28:21.774Z,29.37
2018-08-25T06:30:58.161Z,24.87
2018-08-25T06:33:34.299Z,22.50
2018-08-25T06:36:13.708Z,20.73
2018-08-25T06:38:49.460Z,20.23
2018-08-25T06:41:20.291Z,15.43
2018-08-25T06:43:51.038Z,13.90
2018-08-25T06:46:21.903Z,14.37
2018-08-25T06:48:52.942Z,16.80
2018-08-25T06:51:24.041Z,14.60
2018-08-25T06:53:54.822Z,14.27
2018-08-25T06:56:25.634Z,12.93
2018-08-25T06:58:59.184Z,12.77
2018-08-25T07:01:30.152Z,14.13
2018-08-25T07:04:00.990Z,11.60
2018-08-25T07:06:34.312Z,11.53
2018-08-25T07:09:09.400Z,13.40
2018-08-25T07:11:40.469Z,11.50
2018-08-25T07:14:11.665Z,12.90
2018-08-25T07:16:42.553Z,19.80
2018-08-25T07:19:13.377Z,21.77
2018-08-25T07:21:44.191Z,9.17
2018-08-25T07:24:19.836Z,12.50
2018-08-25T07:26:50.662Z,11.57
2018-08-25T07:29:21.447Z,10.07
2018-08-25T07:31:52.347Z,9.47
2018-08-25T07:34:23.894Z,8.90
2018-08-25T07:36:54.910Z,21.73
2018-08-25T07:39:25.966Z,15.87
2018-08-25T07:41:56.823Z,14.70
2018-08-25T07:44:27.628Z,29.47
2018-08-25T07:46:58.491Z,12.63
2018-08-25T07:49:29.283Z,14.50
2018-08-25T07:52:00.302Z,13.00
2018-08-25T07:54:31.064Z,10.40
2018-08-25T07:57:02.688Z,11.40
2018-08-25T07:59:33.512Z,10.87
2018-08-25T08:02:04.917Z,11.13
2018-08-25T08:04:35.691Z,12.60
2018-08-25T08:07:06.567Z,10.53
2018-08-25T08:09:37.367Z,10.90
2018-08-25T08:12:08.267Z,17.40
2018-08-25T08:14:39.316Z,10.07
2018-08-25T08:17:10.294Z,17.07
2018-08-25T08:19:41.193Z,19.10
2018-08-25T08:22:12.021Z,12.80
2018-08-25T08:24:42.771Z,10.90
2018-08-25T08:27:13.600Z,9.17
2018-08-25T08:29:44.369Z,10.30
2018-08-25T08:32:15.209Z,8.40
2018-08-25T08:34:45.977Z,17.47
2018-08-25T08:37:16.782Z,11.57
2018-08-25T08:39:47.553Z,12.70
2018-08-25T08:42:18.390Z,11.53
2018-08-25T08:44:50.090Z,15.40
2018-08-25T08:47:21.906Z,12.67
2018-08-25T08:49:53.064Z,13.07
2018-08-25T08:52:24.537Z,10.83
2018-08-25T08:54:55.385Z,10.33
2018-08-25T08:57:26.279Z,8.43
2018-08-25T08:59:57.151Z,13.00
2018-08-25T09:02:28.134Z,9.93
2018-08-25T09:04:59.035Z,10.37
2018-08-25T09:07:30.218Z,10.40
2018-08-25T09:10:01.198Z,9.43
2018-08-25T09:12:31.986Z,15.77
2018-08-25T09:15:02.809Z,10.57
2018-08-25T09:17:33.798Z,13.53
2018-08-25T09:20:04.962Z,12.53
2018-08-25T09:22:35.780Z,13.27
2018-08-25T09:25:07.093Z,15.67
2018-08-25T09:27:38.068Z,12.30
2018-08-25T09:30:09.407Z,11.77
2018-08-25T09:32:40.458Z,13.67
2018-08-25T09:35:11.403Z,8.40
2018-08-25T09:37:42.428Z,10.63
2018-08-25T09:40:13.289Z,9.33
2018-08-25T09:42:44.150Z,11.17
2018-08-25T09:45:15.185Z,12.27
2018-08-25T09:47:51.795Z,11.53
2018-08-25T09:50:22.981Z,11.17
2018-08-25T09:52:53.848Z,10.50
2018-08-25T09:55:24.617Z,9.87
2018-08-25T09:57:55.419Z,11.73
2018-08-25T10:00:26.281Z,12.17
2018-08-25T10:02:57.292Z,13.73
2018-08-25T10:05:28.065Z,9.13
2018-08-25T10:07:58.873Z,12.10
2018-08-25T10:10:29.636Z,9.73
2018-08-25T10:13:00.446Z,8.73
2018-08-25T10:15:31.198Z,9.73
2018-08-25T10:18:02.069Z,26.47
2018-08-25T10:20:32.842Z,22.83
2018-08-25T10:23:03.748Z,14.20
2018-08-25T10:25:35.171Z,10.77
2018-08-25T10:28:06.100Z,14.80
2018-08-25T10:30:36.969Z,10.70
2018-08-25T10:33:07.868Z,9.50
2018-08-25T10:35:38.755Z,9.23
2018-08-25T10:38:09.810Z,8.03
2018-08-25T10:40:40.702Z,11.00
2018-08-25T10:43:11.559Z,14.30
2018-08-25T10:45:42.384Z,14.43
2018-08-25T10:48:14.388Z,20.00
2018-08-25T10:50:45.319Z,34.13
2018-08-25T10:53:16.358Z,16.23
2018-08-25T10:55:47.173Z,9.73
2018-08-25T10:58:18.070Z,13.70
2018-08-25T11:00:49.703Z,9.27
2018-08-25T11:03:20.952Z,10.00
2018-08-25T11:05:51.748Z,7.97
2018-08-25T11:08:22.963Z,9.70
2018-08-25T11:10:53.772Z,9.50
2018-08-25T11:13:24.630Z,8.43
2018-08-25T11:15:55.405Z,9.30
2018-08-25T11:18:26.261Z,9.73
2018-08-25T11:20:57.051Z,10.07
2018-08-25T11:23:28.060Z,12.03
2018-08-25T11:26:00.098Z,15.37
2018-08-25T11:28:31.757Z,11.83
2018-08-25T11:31:03.848Z,18.03
2018-08-25T11:33:34.859Z,18.27
2018-08-25T11:36:05.639Z,16.40
2018-08-25T11:38:36.465Z,15.87
2018-08-25T11:41:07.307Z,11.07
2018-08-25T11:43:38.168Z,23.83
2018-08-25T11:46:08.982Z,17.20
2018-08-25T11:48:45.536Z,20.80
2018-08-25T11:51:16.307Z,17.50
2018-08-25T11:53:47.135Z,22.23
2018-08-25T11:56:17.961Z,27.77
2018-08-25T11:58:48.808Z,12.00
2018-08-25T12:01:19.701Z,8.13
2018-08-25T12:03:50.957Z,22.43
2018-08-25T12:06:21.851Z,17.90
2018-08-25T12:08:52.737Z,11.97
2018-08-25T12:11:23.549Z,13.00
2018-08-25T12:13:54.415Z,10.53
2018-08-25T12:16:25.214Z,8.63
2018-08-25T12:18:56.243Z,8.43
2018-08-25T12:21:27.121Z,13.87
2018-08-25T12:23:58.057Z,14.73
2018-08-25T12:26:29.105Z,28.63
2018-08-25T12:28:59.970Z,38.63
2018-08-25T12:31:30.752Z,18.50
2018-08-25T12:34:01.685Z,19.60
2018-08-25T12:36:32.488Z,27.57
2018-08-25T12:39:03.565Z,23.57
2018-08-25T12:41:34.304Z,13.57
2018-08-25T12:44:05.169Z,6.70
2018-08-25T12:46:35.998Z,6.47
2018-08-25T12:49:06.913Z,6.60
2018-08-25T12:51:37.877Z,6.10
2018-08-25T12:54:08.891Z,6.07
2018-08-25T12:56:39.697Z,6.27
2018-08-25T12:59:10.567Z,7.13
2018-08-25T13:01:41.577Z,5.87
2018-08-25T13:04:12.784Z,5.60
2018-08-25T13:06:43.554Z,5.17
2018-08-25T13:09:14.471Z,5.70
2018-08-25T13:11:45.291Z,7.23
2018-08-25T13:14:16.125Z,6.60
2018-08-25T13:16:46.919Z,16.13
2018-08-25T13:19:18.008Z,22.97
2018-08-25T13:21:48.878Z,9.10
2018-08-25T13:24:19.928Z,8.60
2018-08-25T13:26:50.734Z,9.40
2018-08-25T13:29:21.621Z,10.70
2018-08-25T13:31:52.856Z,10.03
2018-08-25T13:34:23.793Z,9.93
2018-08-25T13:36:54.697Z,12.10
2018-08-25T13:39:25.694Z,13.63
2018-08-25T13:41:56.713Z,26.13
2018-08-25T13:44:30.696Z,18.03
2018-08-25T13:47:01.562Z,24.23
2018-08-25T13:49:32.535Z,15.33
2018-08-25T13:52:03.456Z,15.73
2018-08-25T13:54:34.264Z,22.40
2018-08-25T13:57:05.295Z,10.87
2018-08-25T13:59:36.622Z,15.70
2018-08-25T14:02:08.276Z,21.30
2018-08-25T14:04:39.437Z,15.63
2018-08-25T14:07:11.344Z,14.20
2018-08-25T14:09:42.458Z,12.70
2018-08-25T14:12:13.453Z,12.77
2018-08-25T14:14:44.440Z,10.63
2018-08-25T14:17:15.869Z,9.93
2018-08-25T14:19:46.914Z,9.93
2018-08-25T14:22:18.412Z,9.53
2018-08-25T14:26:14.189Z,10.23
2018-08-25T14:28:45.037Z,10.07
2018-08-25T14:31:16.942Z,10.67
2018-08-25T14:33:47.744Z,9.13
2018-08-25T14:36:18.956Z,10.30
2018-08-25T14:38:50.113Z,12.00
2018-08-25T14:41:21.181Z,25.20
2018-08-25T14:43:52.046Z,14.10
2018-08-25T14:46:23.283Z,11.23
2018-08-25T14:48:54.078Z,10.33
2018-08-25T14:51:24.886Z,11.33
2018-08-25T14:53:55.721Z,12.17
2018-08-25T14:56:26.569Z,11.53
2018-08-25T14:58:57.689Z,10.17
2018-08-25T15:01:28.817Z,9.73
2018-08-25T15:03:59.954Z,10.63
2018-08-25T15:06:30.793Z,12.53
2018-08-25T15:09:06.507Z,12.93
2018-08-25T15:11:37.442Z,18.33
2018-08-25T15:14:08.470Z,10.80
2018-08-25T15:16:39.312Z,12.73
2018-08-25T15:19:10.186Z,10.13
2018-08-25T15:21:41.011Z,11.10
2018-08-25T15:24:11.828Z,11.10
2018-08-25T15:26:42.806Z,11.50
2018-08-25T15:29:14.487Z,12.30
2018-08-25T15:31:45.428Z,14.93
2018-08-25T15:34:16.489Z,27.73
2018-08-25T15:36:52.474Z,11.53
2018-08-25T15:39:23.500Z,27.97
2018-08-25T15:41:54.359Z,14.93
2018-08-25T15:44:25.148Z,12.47
2018-08-25T15:46:55.964Z,12.83
2018-08-25T15:49:27.060Z,9.77
2018-08-25T15:51:58.105Z,13.47
2018-08-25T15:54:29.974Z,11.13
2018-08-25T15:57:00.824Z,14.70
2018-08-25T15:59:31.663Z,10.30
2018-08-25T16:02:03.929Z,8.97
2018-08-25T16:04:34.719Z,18.93
2018-08-25T16:07:06.382Z,12.63
2018-08-25T16:09:37.166Z,9.13
2018-08-25T16:12:08.093Z,9.10
2018-08-25T16:14:40.385Z,14.03
2018-08-25T16:17:11.214Z,10.50
2018-08-25T16:19:42.937Z,16.30
2018-08-25T16:22:14.434Z,10.10
2018-08-25T16:24:45.371Z,13.73
2018-08-25T16:27:17.005Z,11.40
2018-08-25T16:29:47.844Z,11.97
2018-08-25T16:32:18.677Z,18.47
2018-08-25T16:34:49.473Z,22.80
2018-08-25T16:37:20.393Z,29.83
2018-08-25T16:39:51.315Z,36.40
2018-08-25T16:42:22.161Z,31.37
2018-08-25T16:44:52.952Z,45.97
2018-08-25T16:47:23.851Z,38.80
2018-08-25T16:49:54.757Z,30.60
2018-08-25T16:52:25.769Z,25.43
2018-08-25T16:54:56.563Z,21.13
2018-08-25T16:57:27.443Z,40.17
2018-08-25T16:59:58.238Z,69.30
2018-08-25T17:02:29.437Z,23.70
2018-08-25T17:05:01.023Z,28.87
2018-08-25T17:07:31.953Z,24.10
2018-08-25T17:10:02.741Z,28.17
2018-08-25T17:12:33.582Z,21.30
2018-08-25T17:15:04.461Z,20.73
2018-08-25T17:17:35.317Z,26.17
2018-08-25T17:20:06.190Z,19.50
2018-08-25T17:22:37.031Z,21.00
2018-08-25T17:25:07.851Z,18.97
2018-08-25T17:27:38.841Z,20.50
2018-08-25T17:30:14.837Z,14.53
2018-08-25T17:32:45.921Z,17.30
2018-08-25T17:35:16.735Z,17.67
2018-08-25T17:37:48.111Z,24.07
2018-08-25T17:40:18.931Z,19.83
2018-08-25T17:42:49.770Z,12.67
2018-08-25T17:45:20.564Z,13.13
2018-08-25T17:47:51.404Z,18.27
2018-08-25T17:50:22.201Z,13.47
2018-08-25T17:52:53.053Z,12.00
2018-08-25T17:55:23.854Z,15.57
2018-08-25T17:57:55.137Z,13.13
2018-08-25T18:00:25.942Z,11.47
2018-08-25T18:02:56.821Z,16.07
2018-08-25T18:05:27.618Z,17.17
2018-08-25T18:07:58.495Z,14.93
2018-08-25T18:10:29.297Z,16.40
2018-08-25T18:13:00.145Z,14.87
2018-08-25T18:15:31.555Z,12.83
2018-08-25T18:18:02.442Z,15.90
2018-08-25T18:20:33.277Z,38.93
2018-08-25T18:23:04.118Z,23.60
2018-08-25T18:25:35.886Z,18.10
2018-08-25T18:28:06.725Z,21.70
2018-08-25T18:30:37.661Z,27.03
2018-08-25T18:33:08.744Z,24.33
2018-08-25T18:35:39.517Z,28.53
2018-08-25T18:38:10.368Z,25.07
2018-08-25T18:40:41.184Z,26.77
2018-08-25T18:43:12.028Z,23.43
2018-08-25T18:45:42.835Z,28.43
2018-08-25T18:48:14.006Z,20.47
2018-08-25T18:50:45.150Z,26.43
2018-08-25T18:53:16.061Z,21.00
2018-08-25T18:55:47.967Z,18.93
2018-08-25T18:58:18.998Z,21.37
2018-08-25T19:00:50.369Z,57.90
2018-08-25T19:03:21.525Z,38.23
2018-08-25T19:05:55.808Z,36.53
2018-08-25T19:08:26.696Z,27.87
2018-08-25T19:10:57.751Z,17.87
2018-08-25T19:13:28.600Z,15.17
2018-08-25T19:15:59.545Z,15.77
2018-08-25T19:18:33.598Z,16.27
2018-08-25T19:21:04.739Z,16.70
2018-08-25T19:23:35.757Z,18.77
2018-08-25T19:26:06.804Z,24.80
2018-08-25T19:28:37.648Z,55.17
2018-08-25T19:31:08.445Z,43.17
2018-08-25T19:33:39.346Z,32.00
2018-08-25T19:36:10.172Z,21.07
2018-08-25T19:38:41.051Z,24.30
2018-08-25T19:41:12.428Z,15.13
2018-08-25T19:43:43.446Z,21.60
2018-08-25T19:46:14.345Z,16.10
2018-08-25T19:48:45.308Z,16.37
2018-08-25T19:51:16.089Z,20.07
2018-08-25T19:53:46.939Z,38.90
2018-08-25T19:56:18.018Z,67.30
2018-08-25T19:58:53.803Z,36.97
2018-08-25T20:01:29.878Z,34.30
2018-08-25T20:04:05.800Z,31.23
2018-08-25T20:06:41.693Z,23.20
2018-08-25T20:09:17.670Z,20.00
2018-08-25T20:11:53.684Z,17.17
2018-08-25T20:14:29.835Z,17.97
2018-08-25T20:17:05.674Z,20.80
2018-08-25T20:19:41.478Z,59.93
2018-08-25T20:22:17.253Z,18.90
2018-08-25T20:24:53.140Z,21.50
2018-08-25T20:27:28.972Z,18.77
2018-08-25T20:30:05.474Z,17.00
2018-08-25T20:32:41.401Z,17.90
2018-08-25T20:35:17.341Z,16.57
2018-08-25T20:37:53.148Z,35.87
2018-08-25T20:40:29.503Z,17.10
2018-08-25T20:43:05.446Z,16.77
2018-08-25T20:45:41.307Z,16.27
2018-08-25T20:48:17.163Z,20.17
2018-08-25T20:50:53.106Z,23.63
2018-08-25T20:53:28.866Z,22.90
2018-08-25T20:56:04.844Z,36.03
2018-08-25T20:58:40.656Z,34.83
2018-08-25T21:01:16.547Z,20.83
2018-08-25T21:03:53.705Z,21.40
2018-08-25T21:07:54.702Z,25.17
2018-08-25T21:10:31.781Z,20.07
2018-08-25T21:13:09.519Z,20.67
2018-08-25T21:15:46.024Z,26.63
2018-08-25T21:18:22.012Z,27.90
2018-08-25T21:20:58.058Z,17.13
2018-08-25T21:23:33.950Z,20.37
2018-08-25T21:26:09.696Z,24.53
2018-08-25T21:28:45.520Z,40.27
2018-08-25T21:31:21.281Z,16.37
2018-08-25T21:33:57.104Z,14.33
2018-08-25T21:36:33.034Z,14.67
2018-08-25T21:39:10.578Z,14.30
2018-08-25T21:41:47.613Z,19.13
2018-08-25T21:44:23.367Z,19.97
2018-08-25T21:46:59.167Z,18.10
2018-08-25T21:49:35.193Z,21.50
2018-08-25T21:52:10.954Z,27.47
2018-08-25T21:54:46.916Z,25.13
2018-08-25T21:57:22.642Z,23.13
2018-08-25T21:59:58.577Z,23.23
2018-08-25T22:02:34.422Z,27.90
2018-08-25T22:05:10.198Z,26.43
2018-08-25T22:07:46.025Z,22.43
2018-08-25T22:10:21.850Z,25.53
2018-08-25T22:12:57.743Z,24.77
2018-08-25T22:15:33.692Z,22.93
2018-08-25T22:18:09.446Z,25.03
2018-08-25T22:20:45.260Z,34.53
2018-08-25T22:23:20.969Z,33.37
2018-08-25T22:25:56.783Z,29.37
2018-08-25T22:28:32.515Z,29.07
2018-08-25T22:31:08.556Z,20.60
2018-08-25T22:33:44.458Z,17.60
2018-08-25T22:36:20.217Z,19.80
2018-08-25T22:38:55.940Z,18.17
2018-08-25T22:41:31.775Z,19.07
2018-08-25T22:44:08.257Z,15.97
2018-08-25T22:46:43.997Z,16.70
2018-08-25T22:49:19.720Z,19.40
2018-08-25T22:51:55.510Z,20.63
2018-08-25T22:54:31.471Z,20.47
2018-08-25T22:57:07.328Z,24.87
2018-08-25T22:59:43.045Z,25.73
2018-08-25T23:02:18.886Z,27.10
2018-08-25T23:04:54.632Z,22.83
2018-08-25T23:07:30.449Z,26.93
2018-08-25T23:10:06.733Z,24.10
2018-08-25T23:12:42.601Z,22.63
2018-08-25T23:15:18.574Z,22.17
2018-08-25T23:17:54.401Z,26.07
2018-08-25T23:20:30.110Z,25.50
2018-08-25T23:23:06.086Z,23.60
2018-08-25T23:25:41.820Z,25.00
2018-08-25T23:28:17.460Z,33.10
2018-08-25T23:30:53.244Z,31.63
2018-08-25T23:33:29.026Z,28.67
2018-08-25T23:36:04.828Z,29.60
2018-08-25T23:38:40.688Z,26.43
2018-08-25T23:41:16.449Z,22.27
2018-08-25T23:43:52.303Z,24.53
2018-08-25T23:46:28.137Z,22.63
2018-08-25T23:49:03.997Z,25.00
2018-08-25T23:51:39.865Z,25.10
2018-08-25T23:54:15.735Z,26.20
2018-08-25T23:56:51.519Z,23.93
2018-08-25T23:59:27.736Z,24.03
